sensor_id;sensor_type;location;lat;lon;timestamp;pressure;altitude;pressure_sealevel;temperature;humidity
51195;BME280;37259;49.972;19.850;2022-11-15T00:00:56;99150;;;5.8;90.1
51195;BME280;37259;49.972;19.850;2022-11-15T00:01:56;99150;;;5.8;90
51195;BME280;37259;49.972;19.850;2022-11-15T00:02:56;99140;;;5.8;90
51195;BME280;37259;49.972;19.850;2022-11-15T00:03:56;99140;;;5.8;90
51195;BME280;37259;49.972;19.850;2022-11-15T00:04:56;99140;;;5.8;90
51195;BME280;37259;49.972;19.850;2022-11-15T00:06:00;99140;;;5.8;90
51195;BME280;37259;49.972;19.850;2022-11-15T00:06:56;99140;;;5.8;90
51195;BME280;37259;49.972;19.850;2022-11-15T00:07:56;99140;;;5.8;90
51195;BME280;37259;49.972;19.850;2022-11-15T00:08:57;99130;;;5.8;89.9
51195;BME280;37259;49.972;19.850;2022-11-15T00:09:56;99130;;;5.9;89.8
51195;BME280;37259;49.972;19.850;2022-11-15T00:10:57;99130;;;5.9;89.8
51195;BME280;37259;49.972;19.850;2022-11-15T00:11:56;99130;;;5.8;89.7
51195;BME280;37259;49.972;19.850;2022-11-15T00:12:56;99130;;;5.7;89.6
51195;BME280;37259;49.972;19.850;2022-11-15T00:13:56;99130;;;5.7;89.6
51195;BME280;37259;49.972;19.850;2022-11-15T00:14:56;99130;;;5.7;89.5
51195;BME280;37259;49.972;19.850;2022-11-15T00:15:56;99130;;;5.5;89.5
51195;BME280;37259;49.972;19.850;2022-11-15T00:16:56;99130;;;5.5;89.5
51195;BME280;37259;49.972;19.850;2022-11-15T00:17:56;99130;;;5.5;89.5
51195;BME280;37259;49.972;19.850;2022-11-15T00:18:56;99130;;;5.6;89.6
51195;BME280;37259;49.972;19.850;2022-11-15T00:19:56;99130;;;5.6;89.5
51195;BME280;37259;49.972;19.850;2022-11-15T00:21:02;99120;;;5.6;89.5
51195;BME280;37259;49.972;19.850;2022-11-15T00:21:56;99130;;;5.6;89.5
51195;BME280;37259;49.972;19.850;2022-11-15T00:22:56;99130;;;5.6;89.5
51195;BME280;37259;49.972;19.850;2022-11-15T00:23:56;99120;;;5.5;89.4
51195;BME280;37259;49.972;19.850;2022-11-15T00:24:56;99120;;;5.5;89.3
51195;BME280;37259;49.972;19.850;2022-11-15T00:25:57;99120;;;5.5;89.3
51195;BME280;37259;49.972;19.850;2022-11-15T00:26:56;99110;;;5.4;89.3
51195;BME280;37259;49.972;19.850;2022-11-15T00:27:56;99110;;;5.4;89.3
51195;BME280;37259;49.972;19.850;2022-11-15T00:28:56;99110;;;5.4;89.3
51195;BME280;37259;49.972;19.850;2022-11-15T00:29:56;99120;;;5.4;89.4
51195;BME280;37259;49.972;19.850;2022-11-15T00:30:59;99120;;;5.4;89.4
51195;BME280;37259;49.972;19.850;2022-11-15T00:31:56;99110;;;5.5;89.5
51195;BME280;37259;49.972;19.850;2022-11-15T00:32:56;99110;;;5.5;89.6
51195;BME280;37259;49.972;19.850;2022-11-15T00:33:56;99120;;;5.5;89.5
51195;BME280;37259;49.972;19.850;2022-11-15T00:34:56;99110;;;5.5;89.6
51195;BME280;37259;49.972;19.850;2022-11-15T00:36:00;99110;;;5.5;89.5
51195;BME280;37259;49.972;19.850;2022-11-15T00:36:56;99110;;;5.5;89.5
51195;BME280;37259;49.972;19.850;2022-11-15T00:37:56;99110;;;5.4;89.4
51195;BME280;37259;49.972;19.850;2022-11-15T00:38:56;99110;;;5.4;89.4
51195;BME280;37259;49.972;19.850;2022-11-15T00:39:56;99110;;;5.3;89.3
51195;BME280;37259;49.972;19.850;2022-11-15T00:40:56;99110;;;5.3;89.3
51195;BME280;37259;49.972;19.850;2022-11-15T00:41:56;99100;;;5.3;89.4
51195;BME280;37259;49.972;19.850;2022-11-15T00:42:56;99100;;;5.3;89.4
51195;BME280;37259;49.972;19.850;2022-11-15T00:43:56;99100;;;5.2;89.3
51195;BME280;37259;49.972;19.850;2022-11-15T00:44:56;99100;;;5.2;89.3
51195;BME280;37259;49.972;19.850;2022-11-15T00:45:56;99100;;;5.2;89.4
51195;BME280;37259;49.972;19.850;2022-11-15T00:46:56;99100;;;5.2;89.4
51195;BME280;37259;49.972;19.850;2022-11-15T00:47:56;99090;;;5.2;89.5
51195;BME280;37259;49.972;19.850;2022-11-15T00:48:56;99090;;;5.1;89.5
51195;BME280;37259;49.972;19.850;2022-11-15T00:49:56;99090;;;5.2;89.6
51195;BME280;37259;49.972;19.850;2022-11-15T00:50:56;99090;;;5.2;89.6
51195;BME280;37259;49.972;19.850;2022-11-15T00:51:56;99090;;;5.1;89.7
51195;BME280;37259;49.972;19.850;2022-11-15T00:52:56;99090;;;5.1;89.7
51195;BME280;37259;49.972;19.850;2022-11-15T00:53:56;99100;;;5.1;89.7
51195;BME280;37259;49.972;19.850;2022-11-15T00:54:56;99100;;;5.1;89.7
51195;BME280;37259;49.972;19.850;2022-11-15T00:55:56;99090;;;5.1;89.7
51195;BME280;37259;49.972;19.850;2022-11-15T00:56:56;99090;;;5.1;89.7
51195;BME280;37259;49.972;19.850;2022-11-15T00:57:56;99090;;;5.1;89.7
51195;BME280;37259;49.972;19.850;2022-11-15T00:58:56;99090;;;5.1;89.7
51195;BME280;37259;49.972;19.850;2022-11-15T00:59:56;99090;;;5.2;89.8
51195;BME280;37259;49.972;19.850;2022-11-15T01:00:56;99090;;;5.2;89.8
51195;BME280;37259;49.972;19.850;2022-11-15T01:01:56;99090;;;5.1;89.7
51195;BME280;37259;49.972;19.850;2022-11-15T01:02:56;99090;;;5.2;89.7
51195;BME280;37259;49.972;19.850;2022-11-15T01:03:56;99090;;;5.1;89.7
51195;BME280;37259;49.972;19.850;2022-11-15T01:04:56;99090;;;5.1;89.7
51195;BME280;37259;49.972;19.850;2022-11-15T01:05:58;99090;;;5.1;89.7
51195;BME280;37259;49.972;19.850;2022-11-15T01:06:56;99090;;;5.1;89.7
51195;BME280;37259;49.972;19.850;2022-11-15T01:07:56;99090;;;4.9;89.9
51195;BME280;37259;49.972;19.850;2022-11-15T01:08:56;99090;;;4.9;89.9
51195;BME280;37259;49.972;19.850;2022-11-15T01:09:56;99090;;;4.9;89.9
51195;BME280;37259;49.972;19.850;2022-11-15T01:10:59;99090;;;4.9;89.9
51195;BME280;37259;49.972;19.850;2022-11-15T01:11:56;99100;;;5;89.9
51195;BME280;37259;49.972;19.850;2022-11-15T01:12:56;99100;;;5;89.9
51195;BME280;37259;49.972;19.850;2022-11-15T01:13:56;99100;;;4.9;89.9
51195;BME280;37259;49.972;19.850;2022-11-15T01:14:56;99100;;;4.9;89.9
51195;BME280;37259;49.972;19.850;2022-11-15T01:15:56;99090;;;4.7;90.1
51195;BME280;37259;49.972;19.850;2022-11-15T01:16:56;99090;;;4.7;90.2
51195;BME280;37259;49.972;19.850;2022-11-15T01:17:56;99090;;;4.6;90.4
51195;BME280;37259;49.972;19.850;2022-11-15T01:18:56;99090;;;4.6;90.4
51195;BME280;37259;49.972;19.850;2022-11-15T01:19:56;99090;;;4.7;90.4
51195;BME280;37259;49.972;19.850;2022-11-15T01:20:56;99090;;;4.7;90.4
51195;BME280;37259;49.972;19.850;2022-11-15T01:21:56;99090;;;4.7;90.4
51195;BME280;37259;49.972;19.850;2022-11-15T01:22:56;99090;;;4.8;90.5
51195;BME280;37259;49.972;19.850;2022-11-15T01:23:56;99090;;;4.7;90.5
51195;BME280;37259;49.972;19.850;2022-11-15T01:24:56;99090;;;4.8;90.5
51195;BME280;37259;49.972;19.850;2022-11-15T01:25:58;99090;;;4.8;90.5
51195;BME280;37259;49.972;19.850;2022-11-15T01:26:56;99080;;;4.7;90.4
51195;BME280;37259;49.972;19.850;2022-11-15T01:27:56;99090;;;4.8;90.3
51195;BME280;37259;49.972;19.850;2022-11-15T01:28:56;99080;;;4.8;90.3
51195;BME280;37259;49.972;19.850;2022-11-15T01:29:56;99080;;;4.8;90.2
51195;BME280;37259;49.972;19.850;2022-11-15T01:30:57;99080;;;4.8;90.2
51195;BME280;37259;49.972;19.850;2022-11-15T01:31:56;99080;;;4.8;90.2
51195;BME280;37259;49.972;19.850;2022-11-15T01:32:56;99080;;;4.7;90.1
51195;BME280;37259;49.972;19.850;2022-11-15T01:33:56;99080;;;4.6;90.1
51195;BME280;37259;49.972;19.850;2022-11-15T01:34:56;99080;;;4.6;90.1
51195;BME280;37259;49.972;19.850;2022-11-15T01:35:56;99080;;;4.6;90.1
51195;BME280;37259;49.972;19.850;2022-11-15T01:36:56;99080;;;4.5;90.2
51195;BME280;37259;49.972;19.850;2022-11-15T01:37:56;99080;;;4.5;90.3
51195;BME280;37259;49.972;19.850;2022-11-15T01:38:57;99080;;;4.5;90.3
51195;BME280;37259;49.972;19.850;2022-11-15T01:39:56;99080;;;4.5;90.3
51195;BME280;37259;49.972;19.850;2022-11-15T01:40:56;99080;;;4.5;90.3
51195;BME280;37259;49.972;19.850;2022-11-15T01:41:56;99080;;;4.5;90.3
51195;BME280;37259;49.972;19.850;2022-11-15T01:42:56;99080;;;4.5;90.3
51195;BME280;37259;49.972;19.850;2022-11-15T01:43:57;99090;;;4.5;90.4
51195;BME280;37259;49.972;19.850;2022-11-15T01:44:56;99090;;;4.5;90.4
51195;BME280;37259;49.972;19.850;2022-11-15T01:45:58;99090;;;4.5;90.4
51195;BME280;37259;49.972;19.850;2022-11-15T01:46:56;99090;;;4.5;90.4
51195;BME280;37259;49.972;19.850;2022-11-15T01:47:56;99090;;;4.6;90.3
51195;BME280;37259;49.972;19.850;2022-11-15T01:48:57;99090;;;4.6;90.3
51195;BME280;37259;49.972;19.850;2022-11-15T01:49:57;99090;;;4.6;90.3
51195;BME280;37259;49.972;19.850;2022-11-15T01:50:56;99090;;;4.6;90.3
51195;BME280;37259;49.972;19.850;2022-11-15T01:51:56;99080;;;4.5;90.4
51195;BME280;37259;49.972;19.850;2022-11-15T01:52:56;99080;;;4.6;90.4
51195;BME280;37259;49.972;19.850;2022-11-15T01:53:57;99080;;;4.6;90.4
51195;BME280;37259;49.972;19.850;2022-11-15T01:54:58;99080;;;4.6;90.4
51195;BME280;37259;49.972;19.850;2022-11-15T01:55:56;99080;;;4.7;90.5
51195;BME280;37259;49.972;19.850;2022-11-15T01:56:57;99080;;;4.7;90.5
51195;BME280;37259;49.972;19.850;2022-11-15T01:57:57;99080;;;4.7;90.5
51195;BME280;37259;49.972;19.850;2022-11-15T01:58:56;99080;;;4.7;90.5
51195;BME280;37259;49.972;19.850;2022-11-15T01:59:56;99080;;;4.7;90.5
51195;BME280;37259;49.972;19.850;2022-11-15T02:00:56;99080;;;4.7;90.5
51195;BME280;37259;49.972;19.850;2022-11-15T02:01:56;99080;;;4.7;90.5
51195;BME280;37259;49.972;19.850;2022-11-15T02:02:56;99070;;;4.7;90.5
51195;BME280;37259;49.972;19.850;2022-11-15T02:03:58;99080;;;4.7;90.4
51195;BME280;37259;49.972;19.850;2022-11-15T02:04:56;99080;;;4.7;90.3
51195;BME280;37259;49.972;19.850;2022-11-15T02:05:56;99080;;;4.7;90.3
51195;BME280;37259;49.972;19.850;2022-11-15T02:06:56;99080;;;4.8;90.3
51195;BME280;37259;49.972;19.850;2022-11-15T02:07:56;99080;;;4.8;90.3
51195;BME280;37259;49.972;19.850;2022-11-15T02:08:56;99080;;;4.7;90.2
51195;BME280;37259;49.972;19.850;2022-11-15T02:09:57;99070;;;4.7;90.2
51195;BME280;37259;49.972;19.850;2022-11-15T02:10:56;99070;;;4.7;90.2
51195;BME280;37259;49.972;19.850;2022-11-15T02:11:56;99070;;;4.7;90.2
51195;BME280;37259;49.972;19.850;2022-11-15T02:12:56;99070;;;4.7;90.2
51195;BME280;37259;49.972;19.850;2022-11-15T02:13:56;99070;;;4.7;90.2
51195;BME280;37259;49.972;19.850;2022-11-15T02:14:56;99060;;;4.7;90.2
51195;BME280;37259;49.972;19.850;2022-11-15T02:15:58;99060;;;4.7;90.2
51195;BME280;37259;49.972;19.850;2022-11-15T02:16:58;99060;;;4.7;90.2
51195;BME280;37259;49.972;19.850;2022-11-15T02:17:59;99060;;;4.7;90.2
51195;BME280;37259;49.972;19.850;2022-11-15T02:18:57;99060;;;4.7;90.2
51195;BME280;37259;49.972;19.850;2022-11-15T02:20:05;99060;;;4.7;90.2
51195;BME280;37259;49.972;19.850;2022-11-15T02:21:00;99060;;;4.7;90.2
51195;BME280;37259;49.972;19.850;2022-11-15T02:21:59;99060;;;4.7;90.2
51195;BME280;37259;49.972;19.850;2022-11-15T02:23:03;99050;;;4.7;90
51195;BME280;37259;49.972;19.850;2022-11-15T02:24:04;99050;;;4.7;89.9
51195;BME280;37259;49.972;19.850;2022-11-15T02:25:00;99050;;;4.7;89.9
51195;BME280;37259;49.972;19.850;2022-11-15T02:25:57;99050;;;4.7;89.9
51195;BME280;37259;49.972;19.850;2022-11-15T02:27:03;99050;;;4.7;89.9
51195;BME280;37259;49.972;19.850;2022-11-15T02:28:35;99050;;;4.7;89.9
51195;BME280;37259;49.972;19.850;2022-11-15T02:28:58;99050;;;4.7;89.9
51195;BME280;37259;49.972;19.850;2022-11-15T02:30:00;99050;;;4.6;89.9
51195;BME280;37259;49.972;19.850;2022-11-15T02:30:58;99050;;;4.6;89.9
51195;BME280;37259;49.972;19.850;2022-11-15T02:31:57;99050;;;4.6;89.9
51195;BME280;37259;49.972;19.850;2022-11-15T02:32:57;99050;;;4.6;89.9
51195;BME280;37259;49.972;19.850;2022-11-15T02:33:59;99050;;;4.6;89.9
51195;BME280;37259;49.972;19.850;2022-11-15T02:34:58;99050;;;4.6;89.9
51195;BME280;37259;49.972;19.850;2022-11-15T02:35:57;99040;;;4.6;89.9
51195;BME280;37259;49.972;19.850;2022-11-15T02:37:06;99040;;;4.6;89.9
51195;BME280;37259;49.972;19.850;2022-11-15T02:37:57;99040;;;4.6;90
51195;BME280;37259;49.972;19.850;2022-11-15T02:38:58;99040;;;4.6;90
51195;BME280;37259;49.972;19.850;2022-11-15T02:39:57;99040;;;4.6;89.9
51195;BME280;37259;49.972;19.850;2022-11-15T02:40:57;99040;;;4.5;89.9
51195;BME280;37259;49.972;19.850;2022-11-15T02:41:57;99040;;;4.5;89.9
51195;BME280;37259;49.972;19.850;2022-11-15T02:42:57;99040;;;4.4;89.9
51195;BME280;37259;49.972;19.850;2022-11-15T02:43:59;99040;;;4.4;89.9
51195;BME280;37259;49.972;19.850;2022-11-15T02:44:56;99040;;;4.4;89.8
51195;BME280;37259;49.972;19.850;2022-11-15T02:45:58;99040;;;4.4;89.8
51195;BME280;37259;49.972;19.850;2022-11-15T02:46:57;99040;;;4.4;89.9
51195;BME280;37259;49.972;19.850;2022-11-15T02:47:56;99040;;;4.4;89.9
51195;BME280;37259;49.972;19.850;2022-11-15T02:48:56;99040;;;4.3;89.9
51195;BME280;37259;49.972;19.850;2022-11-15T02:49:57;99040;;;4.3;89.9
51195;BME280;37259;49.972;19.850;2022-11-15T02:50:57;99040;;;4.3;89.9
51195;BME280;37259;49.972;19.850;2022-11-15T02:51:56;99040;;;4.3;89.9
51195;BME280;37259;49.972;19.850;2022-11-15T02:52:56;99040;;;4.3;89.9
51195;BME280;37259;49.972;19.850;2022-11-15T02:53:56;99040;;;4.3;89.9
51195;BME280;37259;49.972;19.850;2022-11-15T02:54:57;99030;;;4.2;89.8
51195;BME280;37259;49.972;19.850;2022-11-15T02:55:56;99030;;;4.2;89.8
51195;BME280;37259;49.972;19.850;2022-11-15T02:56:58;99030;;;4.2;89.9
51195;BME280;37259;49.972;19.850;2022-11-15T02:58:00;99030;;;4.2;89.9
51195;BME280;37259;49.972;19.850;2022-11-15T02:59:00;99030;;;4.2;89.9
51195;BME280;37259;49.972;19.850;2022-11-15T03:00:00;99030;;;4.3;89.9
51195;BME280;37259;49.972;19.850;2022-11-15T03:00:58;99030;;;4.3;89.9
51195;BME280;37259;49.972;19.850;2022-11-15T03:02:01;99030;;;4.3;89.8
51195;BME280;37259;49.972;19.850;2022-11-15T03:03:00;99020;;;4.3;89.8
51195;BME280;37259;49.972;19.850;2022-11-15T03:03:59;99020;;;4.3;89.8
51195;BME280;37259;49.972;19.850;2022-11-15T03:04:57;99020;;;4.3;89.8
51195;BME280;37259;49.972;19.850;2022-11-15T03:05:57;99020;;;4.3;89.8
51195;BME280;37259;49.972;19.850;2022-11-15T03:06:57;99020;;;4.3;89.8
51195;BME280;37259;49.972;19.850;2022-11-15T03:07:58;99020;;;4.3;89.8
51195;BME280;37259;49.972;19.850;2022-11-15T03:08:59;99020;;;4.3;89.7
51195;BME280;37259;49.972;19.850;2022-11-15T03:09:57;99020;;;4.3;89.7
51195;BME280;37259;49.972;19.850;2022-11-15T03:10:58;99020;;;4.3;89.6
51195;BME280;37259;49.972;19.850;2022-11-15T03:11:58;99020;;;4.3;89.6
51195;BME280;37259;49.972;19.850;2022-11-15T03:12:57;99010;;;4.4;89.6
51195;BME280;37259;49.972;19.850;2022-11-15T03:13:57;99010;;;4.4;89.6
51195;BME280;37259;49.972;19.850;2022-11-15T03:14:57;99010;;;4.3;89.6
51195;BME280;37259;49.972;19.850;2022-11-15T03:15:57;99010;;;4.3;89.6
51195;BME280;37259;49.972;19.850;2022-11-15T03:16:58;99010;;;4.3;89.5
51195;BME280;37259;49.972;19.850;2022-11-15T03:17:58;99010;;;4.4;89.5
51195;BME280;37259;49.972;19.850;2022-11-15T03:18:57;99010;;;4.4;89.5
51195;BME280;37259;49.972;19.850;2022-11-15T03:19:57;99010;;;4.4;89.6
51195;BME280;37259;49.972;19.850;2022-11-15T03:20:57;99010;;;4.4;89.6
51195;BME280;37259;49.972;19.850;2022-11-15T03:21:57;99010;;;4.4;89.5
51195;BME280;37259;49.972;19.850;2022-11-15T03:22:58;99010;;;4.4;89.5
51195;BME280;37259;49.972;19.850;2022-11-15T03:23:56;99010;;;4.4;89.5
51195;BME280;37259;49.972;19.850;2022-11-15T03:24:57;99010;;;4.5;89.5
51195;BME280;37259;49.972;19.850;2022-11-15T03:25:56;99010;;;4.5;89.5
51195;BME280;37259;49.972;19.850;2022-11-15T03:26:56;99010;;;4.5;89.4
51195;BME280;37259;49.972;19.850;2022-11-15T03:27:57;99010;;;4.5;89.4
51195;BME280;37259;49.972;19.850;2022-11-15T03:28:57;99000;;;4.5;89.4
51195;BME280;37259;49.972;19.850;2022-11-15T03:29:57;99000;;;4.4;89.2
51195;BME280;37259;49.972;19.850;2022-11-15T03:30:56;99000;;;4.4;89.2
51195;BME280;37259;49.972;19.850;2022-11-15T03:31:57;99000;;;4.4;89.2
51195;BME280;37259;49.972;19.850;2022-11-15T03:32:56;99000;;;4.4;89.2
51195;BME280;37259;49.972;19.850;2022-11-15T03:33:57;99000;;;4.3;89.1
51195;BME280;37259;49.972;19.850;2022-11-15T03:34:57;99000;;;4.3;89.1
51195;BME280;37259;49.972;19.850;2022-11-15T03:35:56;98990;;;4.3;89.1
51195;BME280;37259;49.972;19.850;2022-11-15T03:36:56;98990;;;4.3;89.1
51195;BME280;37259;49.972;19.850;2022-11-15T03:37:57;98990;;;4.3;89.2
51195;BME280;37259;49.972;19.850;2022-11-15T03:38:56;98990;;;4.4;89.2
51195;BME280;37259;49.972;19.850;2022-11-15T03:39:56;98990;;;4.4;89.1
51195;BME280;37259;49.972;19.850;2022-11-15T03:40:58;98990;;;4.4;89.1
51195;BME280;37259;49.972;19.850;2022-11-15T03:41:58;98990;;;4.3;89.1
51195;BME280;37259;49.972;19.850;2022-11-15T03:42:58;98990;;;4.3;89.1
51195;BME280;37259;49.972;19.850;2022-11-15T03:43:57;98990;;;4.3;89.1
51195;BME280;37259;49.972;19.850;2022-11-15T03:44:58;98990;;;4.4;89
51195;BME280;37259;49.972;19.850;2022-11-15T03:45:58;98980;;;4.4;89
51195;BME280;37259;49.972;19.850;2022-11-15T03:46:57;98980;;;4.4;88.9
51195;BME280;37259;49.972;19.850;2022-11-15T03:47:58;98980;;;4.4;88.9
51195;BME280;37259;49.972;19.850;2022-11-15T03:48:58;98980;;;4.3;88.7
51195;BME280;37259;49.972;19.850;2022-11-15T03:49:58;98980;;;4.2;88.6
51195;BME280;37259;49.972;19.850;2022-11-15T03:50:56;98980;;;4.3;88.6
51195;BME280;37259;49.972;19.850;2022-11-15T03:51:57;98970;;;4.3;88.7
51195;BME280;37259;49.972;19.850;2022-11-15T03:52:56;98970;;;4.3;88.7
51195;BME280;37259;49.972;19.850;2022-11-15T03:53:56;98970;;;4.3;88.7
51195;BME280;37259;49.972;19.850;2022-11-15T03:54:56;98970;;;4.3;88.7
51195;BME280;37259;49.972;19.850;2022-11-15T03:55:56;98970;;;4.2;88.6
51195;BME280;37259;49.972;19.850;2022-11-15T03:56:56;98970;;;4.2;88.6
51195;BME280;37259;49.972;19.850;2022-11-15T03:57:57;98960;;;4.2;88.6
51195;BME280;37259;49.972;19.850;2022-11-15T03:58:56;98960;;;4.1;88.5
51195;BME280;37259;49.972;19.850;2022-11-15T03:59:56;98960;;;4.1;88.5
51195;BME280;37259;49.972;19.850;2022-11-15T04:00:56;98960;;;3.8;88.5
51195;BME280;37259;49.972;19.850;2022-11-15T04:01:56;98960;;;3.8;88.5
51195;BME280;37259;49.972;19.850;2022-11-15T04:02:57;98960;;;3.8;88.7
51195;BME280;37259;49.972;19.850;2022-11-15T04:03:56;98950;;;3.8;88.7
51195;BME280;37259;49.972;19.850;2022-11-15T04:04:56;98950;;;3.8;88.7
51195;BME280;37259;49.972;19.850;2022-11-15T04:05:56;98950;;;3.8;88.6
51195;BME280;37259;49.972;19.850;2022-11-15T04:06:56;98950;;;3.8;88.7
51195;BME280;37259;49.972;19.850;2022-11-15T04:07:56;98940;;;3.7;88.7
51195;BME280;37259;49.972;19.850;2022-11-15T04:08:56;98940;;;3.7;88.7
51195;BME280;37259;49.972;19.850;2022-11-15T04:09:56;98940;;;3.7;88.8
51195;BME280;37259;49.972;19.850;2022-11-15T04:10:56;98940;;;3.6;88.8
51195;BME280;37259;49.972;19.850;2022-11-15T04:11:56;98940;;;3.7;88.8
51195;BME280;37259;49.972;19.850;2022-11-15T04:12:56;98940;;;3.7;88.8
51195;BME280;37259;49.972;19.850;2022-11-15T04:13:56;98940;;;3.7;88.8
51195;BME280;37259;49.972;19.850;2022-11-15T04:14:57;98940;;;3.7;88.9
51195;BME280;37259;49.972;19.850;2022-11-15T04:15:56;98940;;;3.7;88.9
51195;BME280;37259;49.972;19.850;2022-11-15T04:16:56;98940;;;3.7;88.9
51195;BME280;37259;49.972;19.850;2022-11-15T04:17:56;98940;;;3.7;88.9
51195;BME280;37259;49.972;19.850;2022-11-15T04:18:56;98930;;;3.7;88.9
51195;BME280;37259;49.972;19.850;2022-11-15T04:19:56;98930;;;3.7;88.9
51195;BME280;37259;49.972;19.850;2022-11-15T04:20:56;98930;;;3.5;88.9
51195;BME280;37259;49.972;19.850;2022-11-15T04:21:56;98930;;;3.5;88.9
51195;BME280;37259;49.972;19.850;2022-11-15T04:22:57;98930;;;3.5;88.9
51195;BME280;37259;49.972;19.850;2022-11-15T04:23:56;98930;;;3.4;88.9
51195;BME280;37259;49.972;19.850;2022-11-15T04:24:56;98930;;;3.4;89
51195;BME280;37259;49.972;19.850;2022-11-15T04:25:58;98930;;;3.4;89
51195;BME280;37259;49.972;19.850;2022-11-15T04:26:56;98930;;;3.4;89
51195;BME280;37259;49.972;19.850;2022-11-15T04:27:56;98920;;;3.4;89.1
51195;BME280;37259;49.972;19.850;2022-11-15T04:28:56;98920;;;3.4;89.1
51195;BME280;37259;49.972;19.850;2022-11-15T04:29:56;98920;;;3.3;89.1
51195;BME280;37259;49.972;19.850;2022-11-15T04:30:56;98920;;;3.3;89.1
51195;BME280;37259;49.972;19.850;2022-11-15T04:31:56;98920;;;3.4;89.2
51195;BME280;37259;49.972;19.850;2022-11-15T04:32:56;98910;;;3.4;89.2
51195;BME280;37259;49.972;19.850;2022-11-15T04:33:56;98910;;;3.4;89.1
51195;BME280;37259;49.972;19.850;2022-11-15T04:34:56;98910;;;3.4;89.1
51195;BME280;37259;49.972;19.850;2022-11-15T04:35:56;98910;;;3.4;89.1
51195;BME280;37259;49.972;19.850;2022-11-15T04:36:56;98910;;;3.4;89.1
51195;BME280;37259;49.972;19.850;2022-11-15T04:37:57;98910;;;3.4;89
51195;BME280;37259;49.972;19.850;2022-11-15T04:38:56;98910;;;3.3;89
51195;BME280;37259;49.972;19.850;2022-11-15T04:39:56;98910;;;3.3;89.1
51195;BME280;37259;49.972;19.850;2022-11-15T04:40:56;98910;;;3.3;89.1
51195;BME280;37259;49.972;19.850;2022-11-15T04:41:56;98900;;;3.4;89.1
51195;BME280;37259;49.972;19.850;2022-11-15T04:42:56;98900;;;3.4;89.1
51195;BME280;37259;49.972;19.850;2022-11-15T04:43:56;98900;;;3.4;89.1
51195;BME280;37259;49.972;19.850;2022-11-15T04:44:56;98900;;;3.4;89.1
51195;BME280;37259;49.972;19.850;2022-11-15T04:45:56;98900;;;3.4;89
51195;BME280;37259;49.972;19.850;2022-11-15T04:46:56;98900;;;3.4;89
51195;BME280;37259;49.972;19.850;2022-11-15T04:47:56;98900;;;3.4;89
51195;BME280;37259;49.972;19.850;2022-11-15T04:48:56;98900;;;3.4;89
51195;BME280;37259;49.972;19.850;2022-11-15T04:49:56;98900;;;3.4;89
51195;BME280;37259;49.972;19.850;2022-11-15T04:50:56;98890;;;3.4;89.1
51195;BME280;37259;49.972;19.850;2022-11-15T04:51:56;98890;;;3.4;89.1
51195;BME280;37259;49.972;19.850;2022-11-15T04:52:56;98890;;;3.4;89.1
51195;BME280;37259;49.972;19.850;2022-11-15T04:53:56;98890;;;3.4;89
51195;BME280;37259;49.972;19.850;2022-11-15T04:54:56;98890;;;3.4;89
51195;BME280;37259;49.972;19.850;2022-11-15T04:55:56;98890;;;3.3;89
51195;BME280;37259;49.972;19.850;2022-11-15T04:56:56;98890;;;3.3;89
51195;BME280;37259;49.972;19.850;2022-11-15T04:57:57;98890;;;3.2;89
51195;BME280;37259;49.972;19.850;2022-11-15T04:58:56;98890;;;3.2;89
51195;BME280;37259;49.972;19.850;2022-11-15T04:59:56;98890;;;3.2;89
51195;BME280;37259;49.972;19.850;2022-11-15T05:00:56;98890;;;3.2;89
51195;BME280;37259;49.972;19.850;2022-11-15T05:01:56;98890;;;3.2;89
51195;BME280;37259;49.972;19.850;2022-11-15T05:02:56;98890;;;3.1;89
51195;BME280;37259;49.972;19.850;2022-11-15T05:03:56;98890;;;3.1;89.1
51195;BME280;37259;49.972;19.850;2022-11-15T05:04:56;98890;;;3.1;89.1
51195;BME280;37259;49.972;19.850;2022-11-15T05:05:57;98890;;;3.1;89.1
51195;BME280;37259;49.972;19.850;2022-11-15T05:06:56;98890;;;3.1;89.2
51195;BME280;37259;49.972;19.850;2022-11-15T05:07:56;98890;;;3.1;89.3
51195;BME280;37259;49.972;19.850;2022-11-15T05:08:56;98890;;;3.1;89.4
51195;BME280;37259;49.972;19.850;2022-11-15T05:09:56;98890;;;3.1;89.4
51195;BME280;37259;49.972;19.850;2022-11-15T05:10:56;98890;;;3.1;89.4
51195;BME280;37259;49.972;19.850;2022-11-15T05:11:56;98890;;;3.1;89.4
51195;BME280;37259;49.972;19.850;2022-11-15T05:12:56;98890;;;3.1;89.4
51195;BME280;37259;49.972;19.850;2022-11-15T05:13:56;98880;;;3.2;89.6
51195;BME280;37259;49.972;19.850;2022-11-15T05:14:56;98880;;;3.1;89.7
51195;BME280;37259;49.972;19.850;2022-11-15T05:15:56;98880;;;3.1;89.6
51195;BME280;37259;49.972;19.850;2022-11-15T05:16:56;98880;;;3.1;89.6
51195;BME280;37259;49.972;19.850;2022-11-15T05:17:57;98880;;;3.1;89.7
51195;BME280;37259;49.972;19.850;2022-11-15T05:18:56;98880;;;3.1;89.7
51195;BME280;37259;49.972;19.850;2022-11-15T05:19:56;98870;;;3.1;89.7
51195;BME280;37259;49.972;19.850;2022-11-15T05:21:02;98870;;;3.1;89.7
51195;BME280;37259;49.972;19.850;2022-11-15T05:21:56;98870;;;3.2;89.7
51195;BME280;37259;49.972;19.850;2022-11-15T05:22:56;98870;;;3.2;89.8
51195;BME280;37259;49.972;19.850;2022-11-15T05:23:56;98870;;;3.2;89.8
51195;BME280;37259;49.972;19.850;2022-11-15T05:24:56;98870;;;3.2;89.8
51195;BME280;37259;49.972;19.850;2022-11-15T05:25:58;98860;;;3.1;89.8
51195;BME280;37259;49.972;19.850;2022-11-15T05:26:56;98860;;;3.1;89.8
51195;BME280;37259;49.972;19.850;2022-11-15T05:27:56;98870;;;3;89.8
51195;BME280;37259;49.972;19.850;2022-11-15T05:28:57;98870;;;2.9;89.8
51195;BME280;37259;49.972;19.850;2022-11-15T05:29:56;98870;;;3;89.7
51195;BME280;37259;49.972;19.850;2022-11-15T05:31:00;98870;;;3;89.7
51195;BME280;37259;49.972;19.850;2022-11-15T05:31:56;98870;;;3.1;89.7
51195;BME280;37259;49.972;19.850;2022-11-15T05:32:56;98870;;;3.1;89.7
51195;BME280;37259;49.972;19.850;2022-11-15T05:33:56;98870;;;3;89.6
51195;BME280;37259;49.972;19.850;2022-11-15T05:34:56;98870;;;3;89.6
51195;BME280;37259;49.972;19.850;2022-11-15T05:35:57;98870;;;2.9;89.7
51195;BME280;37259;49.972;19.850;2022-11-15T05:36:56;98870;;;2.9;89.7
51195;BME280;37259;49.972;19.850;2022-11-15T05:37:56;98860;;;2.9;89.6
51195;BME280;37259;49.972;19.850;2022-11-15T05:38:56;98860;;;2.9;89.6
51195;BME280;37259;49.972;19.850;2022-11-15T05:39:56;98860;;;2.9;89.6
51195;BME280;37259;49.972;19.850;2022-11-15T05:40:56;98860;;;2.9;89.5
51195;BME280;37259;49.972;19.850;2022-11-15T05:41:57;98860;;;2.9;89.5